createdAt,value
2018-07-20T00:02:09.015Z,1.20
2018-07-20T00:04:37.091Z,1.27
2018-07-20T00:07:05.406Z,1.20
2018-07-20T00:09:33.493Z,0.93
2018-07-20T00:12:01.595Z,1.43
2018-07-20T00:14:29.662Z,1.47
2018-07-20T00:16:57.756Z,1.20
2018-07-20T00:19:25.818Z,1.07
2018-07-20T00:21:53.916Z,1.20
2018-07-20T00:24:21.991Z,1.27
2018-07-20T00:26:49.938Z,1.00
2018-07-20T00:29:18.007Z,1.10
2018-07-20T00:31:46.103Z,0.93
2018-07-20T00:34:14.216Z,1.20
2018-07-20T00:36:42.285Z,0.80
2018-07-20T00:39:11.236Z,1.20
2018-07-20T00:41:39.705Z,1.10
2018-07-20T00:44:07.787Z,0.93
2018-07-20T00:46:35.896Z,0.90
2018-07-20T00:49:03.960Z,1.00
2018-07-20T00:51:32.040Z,1.30
2018-07-20T00:54:00.114Z,1.40
2018-07-20T00:56:28.175Z,1.20
2018-07-20T00:58:56.256Z,1.03
2018-07-20T01:01:24.424Z,1.30
2018-07-20T01:03:52.488Z,1.00
2018-07-20T01:06:20.557Z,0.83
2018-07-20T01:08:48.735Z,1.00
2018-07-20T01:11:16.914Z,1.00
2018-07-20T01:13:44.999Z,1.20
2018-07-20T01:16:13.054Z,1.20
2018-07-20T01:18:41.136Z,1.10
2018-07-20T01:21:09.204Z,1.20
2018-07-20T01:23:37.275Z,1.07
2018-07-20T01:26:05.360Z,1.10
2018-07-20T01:28:33.707Z,1.00
2018-07-20T01:31:01.776Z,1.13
2018-07-20T01:33:29.858Z,1.00
2018-07-20T01:35:57.930Z,0.90
2018-07-20T01:38:26.091Z,1.03
2018-07-20T01:40:54.150Z,1.17
2018-07-20T01:43:22.219Z,1.07
2018-07-20T01:45:50.291Z,1.13
2018-07-20T01:48:18.371Z,1.10
2018-07-20T01:50:46.430Z,0.90
2018-07-20T01:53:14.614Z,0.87
2018-07-20T01:55:42.679Z,1.00
2018-07-20T01:58:10.738Z,0.93
2018-07-20T02:00:38.814Z,0.97
2018-07-20T02:03:07.551Z,1.20
2018-07-20T02:05:35.650Z,0.90
2018-07-20T02:08:03.743Z,1.00
2018-07-20T02:10:31.823Z,1.00
2018-07-20T02:13:00.044Z,0.90
2018-07-20T02:15:28.122Z,1.20
2018-07-20T02:17:56.202Z,1.10
2018-07-20T02:20:24.690Z,1.00
2018-07-20T02:22:52.790Z,1.03
2018-07-20T02:25:20.870Z,1.20
2018-07-20T02:27:48.946Z,1.13
2018-07-20T02:30:17.106Z,1.30
2018-07-20T02:32:45.168Z,1.10
2018-07-20T02:35:13.346Z,1.20
2018-07-20T02:37:41.410Z,1.17
2018-07-20T02:40:09.479Z,1.20
2018-07-20T02:42:37.551Z,1.10
2018-07-20T02:45:05.941Z,0.93
2018-07-20T02:47:34.028Z,1.00
2018-07-20T02:50:02.105Z,1.17
2018-07-20T02:52:30.163Z,1.00
2018-07-20T02:54:58.242Z,1.20
2018-07-20T02:57:26.307Z,1.00
2018-07-20T02:59:54.659Z,1.40
2018-07-20T03:02:22.836Z,1.20
2018-07-20T03:04:50.923Z,1.20
2018-07-20T03:07:19.059Z,1.10
2018-07-20T03:09:47.159Z,1.13
2018-07-20T03:12:15.215Z,1.20
2018-07-20T03:14:43.290Z,0.90
2018-07-20T03:17:11.542Z,1.23
2018-07-20T03:19:39.625Z,1.00
2018-07-20T03:22:07.691Z,0.90
2018-07-20T03:24:35.791Z,1.20
2018-07-20T03:27:03.871Z,1.00
2018-07-20T03:29:31.947Z,1.07
2018-07-20T03:32:00.131Z,1.33
2018-07-20T03:34:28.202Z,1.13
2018-07-20T03:36:56.288Z,1.00
2018-07-20T03:39:24.342Z,1.00
2018-07-20T03:41:52.435Z,1.30
2018-07-20T03:44:20.306Z,1.37
2018-07-20T03:46:48.378Z,1.50
2018-07-20T03:49:16.440Z,1.00
2018-07-20T03:51:44.507Z,1.47
2018-07-20T03:54:12.563Z,1.23
2018-07-20T03:56:40.658Z,1.00
2018-07-20T03:59:08.746Z,1.00
2018-07-20T04:01:36.879Z,1.30
2018-07-20T04:04:04.971Z,1.10
2018-07-20T04:06:33.063Z,1.23
2018-07-20T04:09:01.135Z,0.90
2018-07-20T04:11:29.226Z,1.00
2018-07-20T04:13:57.318Z,1.10
2018-07-20T04:16:25.382Z,0.80
2018-07-20T04:18:53.695Z,0.97
2018-07-20T04:21:21.789Z,1.00
2018-07-20T04:23:49.867Z,1.20
2018-07-20T04:26:17.930Z,1.10
2018-07-20T04:28:46.006Z,1.10
2018-07-20T04:31:14.084Z,1.00
2018-07-20T04:33:42.142Z,1.00
2018-07-20T04:36:10.214Z,1.20
2018-07-20T04:38:38.294Z,1.20
2018-07-20T04:41:06.539Z,1.10
2018-07-20T04:43:34.607Z,1.00
2018-07-20T04:46:02.734Z,1.20
2018-07-20T04:48:30.899Z,1.40
2018-07-20T04:50:59.007Z,1.10
2018-07-20T04:53:27.478Z,1.20
2018-07-20T04:55:55.582Z,1.27
2018-07-20T04:58:23.651Z,1.10
2018-07-20T05:00:51.751Z,1.13
2018-07-20T05:03:19.847Z,1.10
2018-07-20T05:05:48.058Z,1.10
2018-07-20T05:08:16.070Z,1.20
2018-07-20T05:10:44.162Z,1.20
2018-07-20T05:13:12.243Z,1.10
2018-07-20T05:15:40.333Z,1.00
2018-07-20T05:18:08.390Z,1.10
2018-07-20T05:20:36.531Z,1.20
2018-07-20T05:23:05.062Z,1.13
2018-07-20T05:25:33.136Z,1.53
2018-07-20T05:28:01.291Z,1.20
2018-07-20T05:30:29.398Z,1.10
2018-07-20T05:32:57.529Z,1.60
2018-07-20T05:35:25.657Z,1.07
2018-07-20T05:37:53.724Z,1.10
2018-07-20T05:40:21.782Z,1.13
2018-07-20T05:42:49.870Z,1.40
2018-07-20T05:45:18.199Z,1.47
2018-07-20T05:47:46.313Z,1.57
2018-07-20T05:50:14.371Z,1.50
2018-07-20T05:52:42.453Z,1.43
2018-07-20T05:55:10.546Z,1.30
2018-07-20T05:57:38.648Z,1.83
2018-07-20T06:00:06.733Z,1.63
2018-07-20T06:02:34.891Z,1.70
2018-07-20T06:05:02.982Z,1.40
2018-07-20T06:07:31.407Z,1.37
2018-07-20T06:09:59.487Z,1.33
2018-07-20T06:12:27.570Z,1.17
2018-07-20T06:14:55.678Z,1.30
2018-07-20T06:17:23.763Z,1.10
2018-07-20T06:19:51.831Z,0.97
2018-07-20T06:22:19.915Z,1.07
2018-07-20T06:24:47.986Z,1.27
2018-07-20T06:27:16.065Z,0.90
2018-07-20T06:29:44.577Z,1.40
2018-07-20T06:32:12.854Z,1.37
2018-07-20T06:34:40.927Z,1.10
2018-07-20T06:37:09.011Z,1.40
2018-07-20T06:39:37.074Z,0.97
2018-07-20T06:42:05.254Z,1.10
2018-07-20T06:44:33.862Z,1.43
2018-07-20T06:47:01.934Z,1.30
2018-07-20T06:49:30.178Z,1.30
2018-07-20T06:51:58.242Z,1.70
2018-07-20T06:54:26.314Z,2.23
2018-07-20T06:56:54.387Z,2.00
2018-07-20T06:59:22.962Z,1.60
2018-07-20T07:01:51.070Z,1.60
2018-07-20T07:04:19.182Z,1.43
2018-07-20T07:06:47.283Z,1.50
2018-07-20T07:09:15.350Z,1.50
2018-07-20T07:11:43.419Z,1.40
2018-07-20T07:14:11.499Z,1.50
2018-07-20T07:16:39.599Z,1.43
2018-07-20T07:19:07.673Z,1.10
2018-07-20T07:21:35.768Z,1.57
2018-07-20T07:24:03.871Z,1.20
2018-07-20T07:26:32.259Z,1.60
2018-07-20T07:29:00.331Z,1.40
2018-07-20T07:31:28.395Z,1.30
2018-07-20T07:33:56.531Z,1.57
2018-07-20T07:36:24.618Z,1.33
2018-07-20T07:38:52.690Z,1.30
2018-07-20T07:41:20.779Z,1.13
2018-07-20T07:43:48.891Z,1.20
2018-07-20T07:46:17.063Z,1.77
2018-07-20T07:48:45.142Z,1.30
2018-07-20T07:51:13.215Z,1.13
2018-07-20T07:53:41.394Z,0.90
2018-07-20T07:56:09.569Z,1.20
2018-07-20T07:58:37.911Z,1.20
2018-07-20T08:01:06.240Z,1.00
2018-07-20T08:03:34.435Z,1.37
2018-07-20T08:06:02.755Z,1.30
2018-07-20T08:08:30.830Z,1.20
2018-07-20T08:10:58.950Z,1.40
2018-07-20T08:13:27.038Z,1.10
2018-07-20T08:15:55.166Z,0.83
2018-07-20T08:18:23.522Z,1.00
2018-07-20T08:20:51.612Z,1.17
2018-07-20T08:23:19.795Z,1.30
2018-07-20T08:25:47.871Z,1.23
2018-07-20T08:28:15.963Z,0.90
2018-07-20T08:30:44.014Z,1.23
2018-07-20T08:33:12.144Z,1.00
2018-07-20T08:35:40.213Z,0.90
2018-07-20T08:38:08.299Z,1.00
2018-07-20T08:40:36.387Z,0.97
2018-07-20T08:43:04.469Z,0.93
2018-07-20T08:45:32.551Z,0.90
2018-07-20T08:48:00.625Z,0.90
2018-07-20T08:50:28.702Z,0.87
2018-07-20T08:52:56.788Z,0.90
2018-07-20T08:55:24.867Z,1.10
2018-07-20T08:57:52.954Z,0.97
2018-07-20T09:00:21.023Z,1.40
2018-07-20T09:02:49.099Z,2.10
2018-07-20T09:05:17.171Z,1.23
2018-07-20T09:07:45.266Z,1.30
2018-07-20T09:10:13.372Z,1.27
2018-07-20T09:12:41.435Z,1.60
2018-07-20T09:15:09.515Z,1.40
2018-07-20T09:17:37.875Z,1.57
2018-07-20T09:20:05.957Z,1.30
2018-07-20T09:22:34.059Z,1.33
2018-07-20T09:25:02.119Z,1.10
2018-07-20T09:27:30.189Z,1.00
2018-07-20T09:29:58.262Z,1.30
2018-07-20T09:32:26.349Z,0.90
2018-07-20T09:34:54.822Z,1.03
2018-07-20T09:37:22.891Z,0.83
2018-07-20T09:39:50.963Z,1.37
2018-07-20T09:42:19.122Z,0.70
2018-07-20T09:44:47.238Z,1.00
2018-07-20T09:47:15.605Z,0.90
2018-07-20T09:49:43.702Z,1.00
2018-07-20T09:52:11.758Z,1.03
2018-07-20T09:54:39.859Z,1.30
2018-07-20T09:57:07.975Z,0.97
2018-07-20T09:59:36.148Z,1.20
2018-07-20T10:02:04.155Z,1.37
2018-07-20T10:04:32.227Z,1.07
2018-07-20T10:07:00.312Z,1.20
2018-07-20T10:09:29.294Z,0.90
2018-07-20T10:11:57.383Z,1.10
2018-07-20T10:14:25.457Z,0.90
2018-07-20T10:16:53.511Z,1.07
2018-07-20T10:19:21.625Z,1.17
2018-07-20T10:21:49.796Z,0.80
2018-07-20T10:24:18.135Z,0.90
2018-07-20T10:26:46.485Z,1.10
2018-07-20T10:29:14.563Z,1.00
2018-07-20T10:31:42.626Z,1.07
2018-07-20T10:34:10.691Z,0.90
2018-07-20T10:36:38.768Z,0.83
2018-07-20T10:39:08.383Z,0.80
2018-07-20T10:41:36.615Z,1.10
2018-07-20T10:44:04.703Z,0.87
2018-07-20T10:46:33.023Z,0.80
2018-07-20T10:49:01.307Z,0.90
2018-07-20T10:51:29.507Z,0.90
2018-07-20T10:53:57.586Z,1.10
2018-07-20T10:56:25.665Z,0.90
2018-07-20T10:58:54.483Z,0.97
2018-07-20T11:01:22.584Z,0.80
2018-07-20T11:03:50.663Z,0.97
2018-07-20T11:06:18.931Z,0.87
2018-07-20T11:08:46.915Z,1.00
2018-07-20T11:11:15.236Z,0.70
2018-07-20T11:13:43.370Z,0.80
2018-07-20T11:16:11.436Z,0.77
2018-07-20T11:18:39.522Z,0.80
2018-07-20T11:21:07.623Z,1.07
2018-07-20T11:23:35.688Z,1.10
2018-07-20T11:26:03.750Z,1.60
2018-07-20T11:28:31.818Z,1.37
2018-07-20T11:30:59.914Z,1.63
2018-07-20T11:33:27.986Z,1.60
2018-07-20T11:35:56.059Z,1.27
2018-07-20T11:38:24.127Z,1.80
2018-07-20T11:40:52.230Z,1.33
2018-07-20T11:43:20.414Z,1.37
2018-07-20T11:45:48.487Z,1.37
2018-07-20T11:48:16.591Z,1.60
2018-07-20T11:50:44.666Z,1.33
2018-07-20T11:53:12.963Z,1.20
2018-07-20T11:55:41.040Z,1.73
2018-07-20T11:58:09.142Z,1.50
2018-07-20T12:00:37.398Z,1.47
2018-07-20T12:03:05.530Z,2.03
2018-07-20T12:05:33.602Z,3.00
2018-07-20T12:08:01.679Z,1.47
2018-07-20T12:10:30.078Z,1.63
2018-07-20T12:12:58.159Z,1.97
2018-07-20T12:15:26.262Z,1.83
2018-07-20T12:17:54.560Z,1.20
2018-07-20T12:20:22.663Z,1.60
2018-07-20T12:22:50.751Z,1.13
2018-07-20T12:25:18.831Z,1.33
2018-07-20T12:27:46.919Z,1.07
2018-07-20T12:30:15.028Z,1.50
2018-07-20T12:32:43.115Z,1.33
2018-07-20T12:35:11.231Z,1.30
2018-07-20T12:37:39.310Z,1.40
2018-07-20T12:40:07.388Z,1.73
2018-07-20T12:42:35.935Z,1.53
2018-07-20T12:45:03.995Z,1.50
2018-07-20T12:47:32.059Z,1.57
2018-07-20T12:50:00.134Z,2.23
2018-07-20T12:52:28.215Z,1.80
2018-07-20T12:54:56.527Z,2.47
2018-07-20T12:57:24.613Z,1.73
2018-07-20T12:59:52.714Z,2.33
2018-07-20T13:02:20.817Z,2.00
2018-07-20T13:04:48.983Z,2.20
2018-07-20T13:07:17.078Z,1.80
2018-07-20T13:09:45.228Z,2.30
2018-07-20T13:12:13.345Z,2.27
2018-07-20T13:14:41.386Z,2.63
2018-07-20T13:17:09.490Z,4.13
2018-07-20T13:19:37.542Z,1.77
2018-07-20T13:22:06.287Z,2.20
2018-07-20T13:24:34.376Z,1.70
2018-07-20T13:27:02.815Z,1.83
2018-07-20T13:29:30.890Z,1.80
2018-07-20T13:31:58.995Z,1.60
2018-07-20T13:34:27.062Z,1.60
2018-07-20T13:36:55.147Z,2.20
2018-07-20T13:39:23.256Z,1.87
2018-07-20T13:41:51.358Z,1.93
2018-07-20T13:44:19.423Z,1.90
2018-07-20T13:46:47.955Z,2.63
2018-07-20T13:49:16.091Z,2.17
2018-07-20T13:51:44.166Z,2.30
2018-07-20T13:54:12.234Z,2.70
2018-07-20T13:56:40.698Z,2.30
2018-07-20T13:59:08.781Z,2.10
2018-07-20T14:01:36.862Z,1.77
2018-07-20T14:04:05.113Z,2.47
2018-07-20T14:06:33.499Z,1.83
2018-07-20T14:09:01.570Z,2.50
2018-07-20T14:11:30.245Z,1.87
2018-07-20T14:13:58.284Z,1.90
2018-07-20T14:16:26.350Z,1.53
2018-07-20T14:18:54.447Z,1.90
2018-07-20T14:21:22.542Z,1.90
2018-07-20T14:23:50.619Z,1.90
2018-07-20T14:26:18.746Z,2.30
2018-07-20T14:28:46.806Z,2.13
2018-07-20T14:31:14.818Z,1.83
2018-07-20T14:33:42.894Z,2.00
2018-07-20T14:36:10.991Z,1.93
2018-07-20T14:38:39.062Z,1.83
2018-07-20T14:41:07.130Z,1.50
2018-07-20T14:43:35.274Z,1.47
2018-07-20T14:46:03.607Z,1.37
2018-07-20T14:48:31.718Z,1.63
2018-07-20T14:50:59.848Z,1.63
2018-07-20T14:53:27.961Z,1.60
2018-07-20T14:55:56.075Z,2.07
2018-07-20T14:58:24.205Z,1.90
2018-07-20T15:00:52.258Z,1.53
2018-07-20T15:03:20.359Z,1.40
2018-07-20T15:05:48.446Z,1.40
2018-07-20T15:08:16.588Z,1.40
2018-07-20T15:10:44.675Z,1.50
2018-07-20T15:13:12.785Z,1.43
2018-07-20T15:15:40.843Z,1.87
2018-07-20T15:18:08.944Z,1.43
2018-07-20T15:20:37.039Z,1.70
2018-07-20T15:23:05.431Z,1.40
2018-07-20T15:25:33.535Z,2.53
2018-07-20T15:28:01.600Z,1.80
2018-07-20T15:30:29.690Z,1.70
2018-07-20T15:32:57.645Z,1.70
2018-07-20T15:35:25.786Z,1.73
2018-07-20T15:37:53.951Z,1.77
2018-07-20T15:40:22.351Z,1.80
2018-07-20T15:42:50.422Z,1.53
2018-07-20T15:45:18.507Z,1.63
2018-07-20T15:47:46.586Z,1.60
2018-07-20T15:50:14.919Z,1.50
2018-07-20T15:53:36.249Z,1.80
2018-07-20T15:55:11.079Z,1.80
2018-07-20T15:57:39.618Z,1.60
2018-07-20T16:00:08.085Z,2.37
2018-07-20T16:02:35.942Z,1.80
2018-07-20T16:05:04.052Z,1.50
2018-07-20T16:07:32.151Z,1.50
2018-07-20T16:10:00.218Z,1.63
2018-07-20T16:12:28.295Z,1.43
2018-07-20T16:14:56.363Z,1.53
2018-07-20T16:17:24.450Z,1.67
2018-07-20T16:19:52.512Z,1.40
2018-07-20T16:22:20.636Z,1.70
2018-07-20T16:24:48.738Z,1.63
2018-07-20T16:27:17.170Z,1.60
2018-07-20T16:29:45.248Z,1.57
2018-07-20T16:32:13.338Z,1.53
2018-07-20T16:34:41.558Z,1.80
2018-07-20T16:37:09.623Z,1.50
2018-07-20T16:39:37.710Z,1.70
2018-07-20T16:42:05.887Z,2.00
2018-07-20T16:44:34.019Z,2.03
2018-07-20T16:47:02.160Z,2.33
2018-07-20T16:49:30.250Z,2.37
2018-07-20T16:51:58.315Z,2.50
2018-07-20T16:54:26.391Z,2.30
2018-07-20T16:56:54.518Z,2.60
2018-07-20T16:59:22.575Z,2.40
2018-07-20T17:01:50.639Z,2.20
2018-07-20T17:04:19.348Z,2.40
2018-07-20T17:06:47.402Z,2.20
2018-07-20T17:09:15.475Z,2.63
2018-07-20T17:11:43.539Z,2.70
2018-07-20T17:14:11.627Z,2.70
2018-07-20T17:16:39.683Z,2.10
2018-07-20T17:19:07.758Z,2.50
2018-07-20T17:21:35.956Z,2.20
2018-07-20T17:24:04.128Z,2.97
2018-07-20T17:26:32.218Z,2.40
2018-07-20T17:29:00.290Z,2.50
2018-07-20T17:31:28.363Z,2.40
2018-07-20T17:33:56.451Z,2.37
2018-07-20T17:36:24.891Z,2.37
2018-07-20T17:38:53.368Z,2.33
2018-07-20T17:41:21.450Z,2.70
2018-07-20T17:43:49.539Z,2.30
2018-07-20T17:46:17.824Z,2.70
2018-07-20T17:48:46.265Z,3.00
2018-07-20T17:51:14.640Z,3.00
2018-07-20T17:53:42.710Z,2.90
2018-07-20T17:56:10.886Z,2.80
2018-07-20T17:58:38.977Z,3.20
2018-07-20T18:01:07.049Z,2.90
2018-07-20T18:03:35.193Z,2.60
2018-07-20T18:06:03.275Z,2.50
2018-07-20T18:08:31.367Z,2.80
2018-07-20T18:10:59.462Z,2.50
2018-07-20T18:13:27.534Z,2.93
2018-07-20T18:15:55.882Z,2.70
2018-07-20T18:18:23.979Z,2.30
2018-07-20T18:20:52.078Z,3.00
2018-07-20T18:23:20.174Z,2.77
2018-07-20T18:25:48.270Z,2.53
2018-07-20T18:28:16.343Z,2.83
2018-07-20T18:30:44.983Z,2.50
2018-07-20T18:33:13.067Z,2.53
2018-07-20T18:35:41.151Z,2.50
2018-07-20T18:38:09.239Z,2.23
2018-07-20T18:40:37.334Z,2.90
2018-07-20T18:43:05.403Z,2.40
2018-07-20T18:45:33.486Z,2.63
2018-07-20T18:48:01.587Z,2.50
2018-07-20T18:50:29.675Z,2.43
2018-07-20T18:52:58.075Z,2.60
2018-07-20T18:55:26.138Z,2.60
2018-07-20T18:57:54.226Z,2.40
2018-07-20T19:00:22.318Z,2.30
2018-07-20T19:02:50.404Z,2.10
2018-07-20T19:05:18.510Z,2.23
2018-07-20T19:07:46.820Z,2.57
2018-07-20T19:10:14.946Z,2.60
2018-07-20T19:12:43.275Z,2.13
2018-07-20T19:15:11.373Z,2.03
2018-07-20T19:17:39.590Z,2.17
2018-07-20T19:20:07.675Z,2.37
2018-07-20T19:22:35.734Z,2.27
2018-07-20T19:25:03.834Z,2.10
2018-07-20T19:27:31.907Z,2.13
2018-07-20T19:29:59.994Z,2.10
2018-07-20T19:32:28.342Z,2.13
2018-07-20T19:34:56.726Z,2.23
2018-07-20T19:37:24.790Z,2.30
2018-07-20T19:39:52.866Z,2.40
2018-07-20T19:42:20.954Z,2.27
2018-07-20T19:44:49.025Z,2.37
2018-07-20T19:47:17.087Z,2.10
2018-07-20T19:49:45.160Z,2.30
2018-07-20T19:52:13.082Z,2.30
2018-07-20T19:54:41.158Z,2.10
2018-07-20T19:57:09.283Z,2.40
2018-07-20T19:59:37.355Z,2.27
2018-07-20T20:02:05.622Z,2.03
2018-07-20T20:04:33.974Z,2.17
2018-07-20T20:07:02.100Z,2.07
2018-07-20T20:09:30.167Z,1.90
2018-07-20T20:11:58.248Z,2.20
2018-07-20T20:14:26.310Z,2.20
2018-07-20T20:16:54.378Z,2.10
2018-07-20T20:19:22.791Z,1.77
2018-07-20T20:21:50.863Z,2.30
2018-07-20T20:24:19.129Z,2.23
2018-07-20T20:26:47.298Z,2.13
2018-07-20T20:29:15.650Z,2.03
2018-07-20T20:31:43.727Z,2.03
2018-07-20T20:34:11.799Z,2.00
2018-07-20T20:36:39.944Z,2.10
2018-07-20T20:39:09.799Z,2.20
2018-07-20T20:41:38.102Z,2.10
2018-07-20T20:44:06.058Z,2.13
2018-07-20T20:46:34.163Z,1.97
2018-07-20T20:49:02.244Z,2.00
2018-07-20T20:51:30.314Z,2.20
2018-07-20T20:53:58.387Z,1.97
2018-07-20T20:56:26.478Z,2.30
2018-07-20T20:58:54.626Z,1.90
2018-07-20T21:01:22.697Z,2.10
2018-07-20T21:03:50.794Z,2.13
2018-07-20T21:06:19.290Z,2.00
2018-07-20T21:08:47.567Z,1.80
2018-07-20T21:11:15.638Z,2.10
2018-07-20T21:13:43.735Z,2.23
2018-07-20T21:16:11.819Z,2.17
2018-07-20T21:18:39.878Z,2.10
2018-07-20T21:21:07.970Z,1.97
2018-07-20T21:23:36.050Z,1.90
2018-07-20T21:26:04.182Z,2.00
2018-07-20T21:28:32.299Z,1.93
2018-07-20T21:31:00.403Z,1.80
2018-07-20T21:33:28.760Z,2.10
2018-07-20T21:35:56.846Z,2.17
2018-07-20T21:38:24.938Z,2.50
2018-07-20T21:40:53.015Z,2.07
2018-07-20T21:43:21.098Z,2.33
2018-07-20T21:45:49.447Z,1.80
2018-07-20T21:48:17.570Z,2.03
2018-07-20T21:50:45.684Z,2.10
2018-07-20T21:53:14.090Z,1.97
2018-07-20T21:55:42.234Z,2.30
2018-07-20T21:58:10.286Z,2.10
2018-07-20T22:00:38.367Z,2.07
2018-07-20T22:03:06.471Z,2.53
2018-07-20T22:05:34.540Z,1.70
2018-07-20T22:08:02.610Z,1.90
2018-07-20T22:10:30.690Z,2.20
2018-07-20T22:12:58.889Z,1.73
2018-07-20T22:15:26.958Z,1.53
2018-07-20T22:17:55.302Z,2.30
2018-07-20T22:20:23.379Z,2.03
2018-07-20T22:22:51.306Z,2.03
2018-07-20T22:25:19.401Z,2.20
2018-07-20T22:27:47.465Z,2.20
2018-07-20T22:30:15.811Z,2.13
2018-07-20T22:32:43.880Z,2.77
2018-07-20T22:35:12.021Z,2.17
2018-07-20T22:37:40.110Z,2.20
2018-07-20T22:40:08.330Z,1.80
2018-07-20T22:42:36.439Z,2.03
2018-07-20T22:45:04.531Z,2.20
2018-07-20T22:47:32.678Z,2.17
2018-07-20T22:50:00.735Z,2.33
2018-07-20T22:52:28.798Z,1.97
2018-07-20T22:54:56.910Z,1.77
2018-07-20T22:57:25.301Z,2.23
2018-07-20T22:59:53.350Z,1.97
2018-07-20T23:02:21.456Z,2.30
2018-07-20T23:04:49.518Z,1.93
2018-07-20T23:07:17.599Z,1.80
2018-07-20T23:09:45.667Z,1.67
2018-07-20T23:12:13.758Z,2.20
2018-07-20T23:14:41.835Z,1.87
2018-07-20T23:17:09.794Z,1.90
2018-07-20T23:19:38.182Z,1.97
2018-07-20T23:22:06.427Z,2.27
2018-07-20T23:24:34.523Z,2.03
2018-07-20T23:27:02.917Z,1.97
2018-07-20T23:29:31.020Z,1.70
2018-07-20T23:31:59.074Z,2.00
2018-07-20T23:34:27.141Z,2.30
2018-07-20T23:36:55.225Z,1.90
2018-07-20T23:39:23.334Z,2.23
2018-07-20T23:41:51.643Z,2.20
2018-07-20T23:44:19.827Z,2.00
2018-07-20T23:46:47.890Z,1.93
2018-07-20T23:49:16.063Z,2.13
2018-07-20T23:51:44.150Z,1.80
2018-07-20T23:54:12.251Z,2.00
2018-07-20T23:56:40.356Z,2.00
2018-07-20T23:59:08.415Z,2.30
